createdAt,value
2023-04-10T00:01:40.515Z,99.90
2023-04-10T00:04:09.752Z,99.90
2023-04-10T00:06:38.398Z,99.90
2023-04-10T00:09:06.842Z,99.90
2023-04-10T00:11:35.486Z,99.90
2023-04-10T00:14:05.439Z,99.90
2023-04-10T00:16:33.908Z,99.90
2023-04-10T00:19:02.401Z,99.90
2023-04-10T00:21:31.372Z,99.90
2023-04-10T00:23:59.792Z,99.90
2023-04-10T00:26:28.194Z,99.90
2023-04-10T00:28:56.745Z,99.90
2023-04-10T00:31:26.673Z,99.90
2023-04-10T00:33:55.433Z,99.90
2023-04-10T00:36:24.135Z,99.90
2023-04-10T00:38:52.761Z,99.90
2023-04-10T00:41:21.297Z,99.90
2023-04-10T00:43:49.712Z,99.90
2023-04-10T00:46:18.347Z,99.90
2023-04-10T00:48:48.231Z,99.90
2023-04-10T00:51:16.665Z,99.90
2023-04-10T00:53:45.407Z,99.90
2023-04-10T00:56:13.877Z,99.90
2023-04-10T00:58:42.294Z,99.90
2023-04-10T01:01:11.504Z,99.90
2023-04-10T01:03:41.091Z,99.90
2023-04-10T01:06:26.668Z,99.90
2023-04-10T01:09:00.140Z,99.90
2023-04-10T01:11:43.443Z,99.90
2023-04-10T01:14:17.755Z,99.90
2023-04-10T01:16:52.300Z,99.90
2023-04-10T01:19:37.383Z,99.90
2023-04-10T01:22:10.595Z,99.90
2023-04-10T01:24:51.911Z,99.90
2023-04-10T01:27:31.422Z,99.90
2023-04-10T01:30:03.167Z,99.90
2023-04-10T01:32:34.233Z,99.90
2023-04-10T01:35:06.647Z,99.90
2023-04-10T01:37:39.381Z,99.90
2023-04-10T01:40:11.544Z,99.90
2023-04-10T01:42:44.381Z,99.90
2023-04-10T01:45:19.008Z,99.90
2023-04-10T01:47:47.712Z,99.90
2023-04-10T01:50:16.875Z,99.90
2023-04-10T01:52:45.768Z,99.90
2023-04-10T01:55:14.264Z,99.90
2023-04-10T01:57:42.693Z,99.90
2023-04-10T02:00:12.286Z,99.90
2023-04-10T02:02:42.884Z,99.90
2023-04-10T02:05:11.925Z,99.90
2023-04-10T02:07:45.867Z,99.90
2023-04-10T02:10:16.685Z,99.90
2023-04-10T02:12:48.124Z,99.90
2023-04-10T02:15:18.450Z,99.90
2023-04-10T02:17:49.265Z,99.90
2023-04-10T02:20:19.414Z,99.90
2023-04-10T02:22:48.334Z,99.90
2023-04-10T02:25:17.739Z,99.90
2023-04-10T02:27:46.371Z,99.90
2023-04-10T02:30:14.874Z,99.90
2023-04-10T02:32:44.116Z,99.90
2023-04-10T02:35:14.167Z,99.90
2023-04-10T02:37:42.838Z,99.90
2023-04-10T02:40:12.025Z,99.90
2023-04-10T02:42:40.501Z,99.90
2023-04-10T02:45:10.293Z,99.90
2023-04-10T02:47:38.788Z,99.90
2023-04-10T02:50:08.076Z,99.90
2023-04-10T02:52:37.846Z,99.90
2023-04-10T02:55:07.166Z,99.90
2023-04-10T02:57:36.319Z,99.90
2023-04-10T03:00:05.314Z,99.90
2023-04-10T03:02:33.971Z,99.90
2023-04-10T03:05:03.309Z,99.90
2023-04-10T03:07:32.304Z,99.90
2023-04-10T03:10:02.132Z,99.90
2023-04-10T03:12:30.562Z,99.90
2023-04-10T03:14:59.028Z,99.90
2023-04-10T03:17:27.505Z,99.90
2023-04-10T03:19:55.930Z,99.90
2023-04-10T03:22:24.409Z,99.90
2023-04-10T03:24:52.829Z,99.90
2023-04-10T03:27:22.726Z,99.90
2023-04-10T03:29:51.118Z,99.90
2023-04-10T03:32:19.514Z,99.90
2023-04-10T03:34:48.053Z,99.90
2023-04-10T03:37:16.471Z,99.90
2023-04-10T03:39:44.937Z,99.90
2023-04-10T03:42:13.420Z,99.90
2023-04-10T03:44:43.204Z,99.90
2023-04-10T03:47:12.272Z,99.90
2023-04-10T03:49:40.812Z,99.90
2023-04-10T03:52:09.352Z,99.90
2023-04-10T03:54:37.830Z,99.90
2023-04-10T03:57:06.841Z,99.90
2023-04-10T03:59:38.860Z,99.90
2023-04-10T04:02:09.683Z,99.90
2023-04-10T04:04:38.395Z,99.90
2023-04-10T04:07:06.869Z,99.90
2023-04-10T04:09:35.402Z,99.90
2023-04-10T04:12:03.894Z,99.90
2023-04-10T04:14:32.396Z,99.90
2023-04-10T04:17:01.068Z,99.90
2023-04-10T04:19:31.093Z,99.90
2023-04-10T04:22:00.496Z,99.90
2023-04-10T04:24:28.980Z,99.90
2023-04-10T04:26:57.612Z,99.90
2023-04-10T04:29:26.102Z,99.90
2023-04-10T04:31:54.553Z,99.90
2023-04-10T04:34:23.002Z,99.90
2023-04-10T04:36:52.792Z,99.90
2023-04-10T04:39:23.181Z,99.90
2023-04-10T04:41:51.661Z,99.90
2023-04-10T04:44:20.440Z,99.90
2023-04-10T04:46:48.855Z,99.90
2023-04-10T04:49:17.273Z,99.90
2023-04-10T04:51:45.732Z,99.90
2023-04-10T04:54:15.496Z,99.90
2023-04-10T04:56:43.952Z,99.90
2023-04-10T04:59:12.362Z,99.90
2023-04-10T05:01:40.913Z,99.90
2023-04-10T05:04:09.448Z,99.90
2023-04-10T05:06:38.091Z,99.90
2023-04-10T05:09:06.534Z,99.90
2023-04-10T05:11:36.546Z,99.90
2023-04-10T05:14:05.015Z,99.90
2023-04-10T05:16:33.433Z,99.90
2023-04-10T05:19:01.918Z,99.90
2023-04-10T05:21:31.298Z,99.90
2023-04-10T05:23:59.723Z,99.90
2023-04-10T05:26:28.106Z,99.90
2023-04-10T05:28:57.926Z,99.90
2023-04-10T05:31:26.549Z,99.90
2023-04-10T05:33:55.034Z,99.90
2023-04-10T05:36:23.452Z,99.90
2023-04-10T05:38:52.046Z,99.90
2023-04-10T05:41:20.714Z,99.90
2023-04-10T05:43:49.846Z,99.90
2023-04-10T05:46:19.704Z,99.90
2023-04-10T05:48:48.249Z,99.90
2023-04-10T05:51:16.656Z,99.90
2023-04-10T05:53:45.149Z,99.90
2023-04-10T05:56:13.559Z,99.90
2023-04-10T05:58:42.021Z,99.30
2023-04-10T06:01:11.427Z,98.60
2023-04-10T06:03:41.396Z,97.70
2023-04-10T06:06:10.009Z,97.00
2023-04-10T06:08:38.444Z,96.40
2023-04-10T06:11:07.243Z,97.30
2023-04-10T06:13:36.085Z,96.60
2023-04-10T06:16:05.515Z,96.80
2023-04-10T06:18:34.033Z,95.90
2023-04-10T06:21:03.849Z,95.10
2023-04-10T06:23:32.514Z,95.40
2023-04-10T06:26:01.736Z,94.20
2023-04-10T06:28:30.187Z,94.20
2023-04-10T06:30:58.639Z,93.80
2023-04-10T06:33:27.218Z,93.60
2023-04-10T06:35:56.037Z,94.10
2023-04-10T06:38:25.882Z,94.40
2023-04-10T06:40:54.386Z,94.20
2023-04-10T06:43:23.002Z,95.20
2023-04-10T06:45:51.436Z,93.10
2023-04-10T06:48:19.981Z,93.70
2023-04-10T06:50:48.522Z,93.90
2023-04-10T06:53:17.045Z,94.70
2023-04-10T06:55:46.877Z,94.40
2023-04-10T06:58:15.528Z,94.10
2023-04-10T07:00:43.987Z,94.10
2023-04-10T07:03:12.565Z,93.50
2023-04-10T07:05:42.293Z,93.70
2023-04-10T07:08:11.005Z,92.10
2023-04-10T07:10:39.447Z,92.20
2023-04-10T07:13:09.312Z,92.60
2023-04-10T07:15:37.726Z,92.30
2023-04-10T07:18:07.086Z,91.20
2023-04-10T07:20:35.665Z,90.80
2023-04-10T07:23:04.238Z,92.00
2023-04-10T07:25:32.644Z,91.50
2023-04-10T07:28:01.072Z,92.70
2023-04-10T07:30:30.933Z,92.50
2023-04-10T07:32:59.565Z,92.30
2023-04-10T07:35:28.214Z,92.00
2023-04-10T07:37:56.679Z,92.20
2023-04-10T07:40:25.077Z,91.70
2023-04-10T07:42:53.968Z,91.50
2023-04-10T07:45:22.485Z,90.50
2023-04-10T07:47:52.253Z,90.20
2023-04-10T07:50:20.761Z,90.30
2023-04-10T07:52:50.461Z,90.30
2023-04-10T07:55:18.984Z,89.70
2023-04-10T07:57:47.422Z,92.20
2023-04-10T08:00:16.817Z,90.10
2023-04-10T08:02:45.548Z,86.90
2023-04-10T08:05:15.732Z,88.40
2023-04-10T08:07:44.200Z,88.00
2023-04-10T08:10:12.991Z,85.50
2023-04-10T08:12:41.367Z,86.00
2023-04-10T08:15:10.601Z,86.50
2023-04-10T08:17:39.122Z,89.80
2023-04-10T08:20:09.299Z,86.10
2023-04-10T08:22:39.227Z,84.50
2023-04-10T08:25:08.058Z,87.00
2023-04-10T08:27:36.468Z,87.30
2023-04-10T08:30:05.638Z,85.50
2023-04-10T08:32:34.154Z,80.70
2023-04-10T08:35:02.601Z,84.30
2023-04-10T08:37:31.070Z,78.30
2023-04-10T08:40:00.888Z,78.90
2023-04-10T08:42:29.323Z,76.20
2023-04-10T08:44:57.753Z,73.10
2023-04-10T08:47:29.866Z,73.20
2023-04-10T08:49:58.989Z,74.00
2023-04-10T08:52:27.808Z,78.40
2023-04-10T08:54:58.343Z,80.50
2023-04-10T08:57:28.300Z,76.40
2023-04-10T09:00:01.993Z,79.90
2023-04-10T09:02:32.881Z,81.90
2023-04-10T09:05:01.931Z,75.20
2023-04-10T09:07:30.429Z,76.40
2023-04-10T09:09:58.948Z,75.00
2023-04-10T09:12:28.770Z,79.20
2023-04-10T09:14:58.429Z,78.60
2023-04-10T09:17:26.853Z,76.80
2023-04-10T09:19:56.104Z,74.30
2023-04-10T09:22:31.967Z,71.80
2023-04-10T09:25:01.241Z,72.70
2023-04-10T09:27:36.064Z,73.60
2023-04-10T09:30:05.877Z,73.50
2023-04-10T09:32:39.734Z,73.60
2023-04-10T09:35:09.574Z,76.70
2023-04-10T09:37:38.817Z,80.50
2023-04-10T09:40:08.820Z,82.20
2023-04-10T09:42:39.076Z,80.10
2023-04-10T09:45:08.071Z,76.80
2023-04-10T09:47:36.486Z,77.60
2023-04-10T09:50:05.587Z,81.60
2023-04-10T09:52:35.621Z,79.80
2023-04-10T09:55:06.309Z,81.80
2023-04-10T09:57:35.710Z,73.40
2023-04-10T10:00:08.326Z,77.50
2023-04-10T10:02:39.388Z,73.20
2023-04-10T10:05:08.604Z,72.10
2023-04-10T10:07:37.626Z,76.00
2023-04-10T10:10:09.086Z,77.10
2023-04-10T10:12:44.910Z,74.70
2023-04-10T10:15:18.201Z,74.70
2023-04-10T10:17:51.061Z,80.30
2023-04-10T10:20:19.919Z,81.00
2023-04-10T10:22:49.427Z,78.60
2023-04-10T10:25:18.178Z,73.00
2023-04-10T10:27:47.964Z,78.10
2023-04-10T10:30:29.568Z,73.80
2023-04-10T10:33:00.258Z,70.60
2023-04-10T10:35:30.070Z,73.10
2023-04-10T10:37:59.961Z,77.10
2023-04-10T10:40:30.943Z,76.90
2023-04-10T10:43:08.315Z,70.80
2023-04-10T10:45:42.473Z,71.60
2023-04-10T10:48:11.320Z,73.40
2023-04-10T10:50:54.143Z,77.30
2023-04-10T10:53:36.922Z,73.80
2023-04-10T10:56:37.177Z,73.90
2023-04-10T10:59:05.671Z,73.20
2023-04-10T11:01:35.527Z,67.60
2023-04-10T11:04:43.964Z,69.20
2023-04-10T11:07:12.494Z,68.10
2023-04-10T11:09:51.947Z,70.60
2023-04-10T11:12:22.425Z,74.80
2023-04-10T11:14:59.333Z,75.30
2023-04-10T11:17:55.688Z,76.70
2023-04-10T11:20:27.302Z,73.00
2023-04-10T11:23:10.111Z,73.20
2023-04-10T11:25:52.023Z,73.20
2023-04-10T11:28:36.045Z,68.90
2023-04-10T11:31:26.173Z,66.40
2023-04-10T11:34:06.048Z,67.80
2023-04-10T11:36:35.941Z,67.30
2023-04-10T11:39:06.101Z,67.90
2023-04-10T11:41:35.541Z,71.30
2023-04-10T11:44:07.049Z,70.00
2023-04-10T11:46:38.320Z,68.60
2023-04-10T11:49:09.765Z,70.00
2023-04-10T11:51:38.792Z,66.90
2023-04-10T11:54:09.008Z,69.50
2023-04-10T11:56:38.057Z,72.20
2023-04-10T11:59:10.881Z,69.50
2023-04-10T12:01:42.731Z,66.70
2023-04-10T12:04:17.237Z,68.20
2023-04-10T12:06:46.974Z,67.60
2023-04-10T12:09:17.477Z,63.00
2023-04-10T12:11:53.274Z,65.00
2023-04-10T12:14:22.772Z,68.60
2023-04-10T12:16:51.739Z,69.60
2023-04-10T12:19:22.567Z,61.60
2023-04-10T12:21:51.333Z,64.40
2023-04-10T12:24:44.415Z,61.60
2023-04-10T12:27:19.190Z,60.00
2023-04-10T12:29:48.596Z,60.80
2023-04-10T12:32:17.173Z,65.20
2023-04-10T12:34:53.002Z,64.10
2023-04-10T12:37:21.658Z,62.30
2023-04-10T12:39:50.485Z,66.90
2023-04-10T12:42:20.880Z,65.40
2023-04-10T12:44:53.694Z,63.80
2023-04-10T12:47:22.116Z,63.70
2023-04-10T12:50:11.580Z,61.60
2023-04-10T12:52:41.507Z,61.20
2023-04-10T12:55:14.623Z,60.30
2023-04-10T12:57:44.649Z,60.70
2023-04-10T13:00:15.054Z,64.60
2023-04-10T13:02:44.033Z,64.70
2023-04-10T13:05:14.128Z,65.00
2023-04-10T13:07:43.195Z,63.90
2023-04-10T13:10:11.847Z,63.90
2023-04-10T13:12:41.976Z,63.20
2023-04-10T13:15:18.528Z,63.70
2023-04-10T13:17:47.204Z,63.10
2023-04-10T13:20:15.774Z,63.00
2023-04-10T13:22:44.209Z,60.50
2023-04-10T13:25:12.690Z,61.30
2023-04-10T13:27:41.105Z,59.60
2023-04-10T13:30:10.434Z,59.30
2023-04-10T13:32:41.084Z,57.30
2023-04-10T13:35:10.115Z,56.80
2023-04-10T13:37:38.633Z,58.00
2023-04-10T13:40:08.509Z,58.90
2023-04-10T13:42:39.340Z,57.30
2023-04-10T13:45:09.861Z,58.20
2023-04-10T13:47:39.833Z,59.20
2023-04-10T13:50:09.110Z,60.40
2023-04-10T13:52:37.514Z,58.60
2023-04-10T13:55:06.812Z,58.80
2023-04-10T13:57:35.332Z,59.30
2023-04-10T14:00:04.777Z,59.00
2023-04-10T14:02:34.059Z,60.70
2023-04-10T14:05:04.963Z,57.70
2023-04-10T14:07:35.991Z,60.30
2023-04-10T14:10:04.986Z,61.80
2023-04-10T14:12:34.317Z,58.00
2023-04-10T14:15:03.980Z,58.50
2023-04-10T14:17:32.413Z,58.70
2023-04-10T14:20:01.749Z,58.80
2023-04-10T14:22:31.752Z,60.10
2023-04-10T14:25:11.798Z,60.80
2023-04-10T14:27:41.338Z,59.10
2023-04-10T14:30:10.584Z,57.80
2023-04-10T14:32:40.034Z,59.50
2023-04-10T14:35:09.387Z,59.70
2023-04-10T14:37:39.712Z,58.90
2023-04-10T14:40:09.380Z,59.40
2023-04-10T14:42:37.893Z,58.70
2023-04-10T14:45:07.237Z,58.00
2023-04-10T14:47:36.396Z,57.70
2023-04-10T14:50:05.329Z,58.10
2023-04-10T14:52:33.774Z,57.90
2023-04-10T14:55:03.788Z,58.70
2023-04-10T14:57:32.204Z,59.50
2023-04-10T15:00:01.403Z,59.60
2023-04-10T15:02:30.625Z,59.00
2023-04-10T15:04:59.108Z,59.20
2023-04-10T15:07:28.305Z,58.40
2023-04-10T15:09:57.923Z,59.10
2023-04-10T15:12:27.716Z,58.00
2023-04-10T15:14:56.113Z,57.40
2023-04-10T15:17:25.025Z,58.20
2023-04-10T15:19:53.496Z,57.90
2023-04-10T15:22:21.989Z,60.00
2023-04-10T15:24:51.083Z,59.80
2023-04-10T15:27:21.125Z,58.60
2023-04-10T15:29:51.279Z,58.60
2023-04-10T15:32:19.932Z,59.10
2023-04-10T15:34:48.339Z,60.10
2023-04-10T15:37:16.801Z,60.30
2023-04-10T15:39:45.291Z,60.70
2023-04-10T15:42:13.775Z,61.00
2023-04-10T15:44:42.413Z,62.30
2023-04-10T15:47:12.330Z,60.20
2023-04-10T15:49:40.751Z,60.20
2023-04-10T15:52:09.368Z,59.30
2023-04-10T15:54:40.437Z,60.10
2023-04-10T15:57:08.910Z,59.40
2023-04-10T15:59:38.304Z,58.20
2023-04-10T16:02:07.092Z,58.80
2023-04-10T16:04:37.012Z,59.90
2023-04-10T16:07:05.443Z,59.80
2023-04-10T16:09:33.885Z,59.40
2023-04-10T16:12:03.225Z,59.90
2023-04-10T16:14:31.684Z,59.30
2023-04-10T16:17:00.064Z,59.10
2023-04-10T16:19:31.422Z,60.50
2023-04-10T16:22:01.281Z,60.10
2023-04-10T16:24:30.006Z,61.10
2023-04-10T16:26:58.405Z,60.40
2023-04-10T16:29:26.837Z,60.50
2023-04-10T16:31:55.313Z,60.40
2023-04-10T16:34:23.871Z,60.60
2023-04-10T16:36:52.287Z,60.10
2023-04-10T16:39:22.116Z,60.40
2023-04-10T16:41:50.606Z,61.80
2023-04-10T16:44:19.031Z,61.90
2023-04-10T16:46:47.601Z,62.50
2023-04-10T16:49:17.522Z,62.60
2023-04-10T16:51:45.904Z,62.90
2023-04-10T16:54:14.818Z,63.10
2023-04-10T16:56:44.565Z,63.50
2023-04-10T16:59:12.992Z,63.30
2023-04-10T17:01:41.519Z,63.40
2023-04-10T17:04:10.476Z,64.10
2023-04-10T17:06:39.014Z,64.50
2023-04-10T17:09:07.493Z,64.90
2023-04-10T17:11:36.023Z,65.10
2023-04-10T17:14:06.584Z,65.10
2023-04-10T17:16:35.059Z,65.00
2023-04-10T17:19:03.608Z,65.60
2023-04-10T17:21:32.129Z,65.90
2023-04-10T17:24:00.584Z,66.40
2023-04-10T17:26:29.247Z,66.80
2023-04-10T17:28:57.634Z,67.60
2023-04-10T17:31:27.515Z,68.80
2023-04-10T17:33:56.033Z,70.10
2023-04-10T17:36:24.481Z,70.80
2023-04-10T17:38:54.177Z,71.60
2023-04-10T17:41:22.903Z,73.10
2023-04-10T17:43:51.751Z,74.40
2023-04-10T17:46:20.273Z,75.40
2023-04-10T17:48:50.203Z,76.90
2023-04-10T17:51:18.654Z,77.70
2023-04-10T17:53:47.229Z,79.40
2023-04-10T17:56:19.842Z,80.00
2023-04-10T17:58:48.432Z,80.50
2023-04-10T18:01:22.900Z,81.10
2023-04-10T18:03:52.969Z,81.60
2023-04-10T18:06:21.430Z,82.20
2023-04-10T18:08:50.248Z,82.60
2023-04-10T18:11:19.033Z,83.20
2023-04-10T18:13:48.295Z,83.70
2023-04-10T18:16:17.469Z,84.40
2023-04-10T18:18:46.061Z,85.00
2023-04-10T18:21:16.080Z,85.60
2023-04-10T18:23:45.414Z,86.00
2023-04-10T18:26:14.223Z,86.10
2023-04-10T18:28:43.548Z,86.20
2023-04-10T18:31:14.755Z,86.80
2023-04-10T18:33:43.518Z,87.20
2023-04-10T18:36:14.055Z,87.30
2023-04-10T18:38:44.148Z,87.70
2023-04-10T18:41:12.542Z,88.00
2023-04-10T18:43:41.440Z,88.70
2023-04-10T18:46:10.793Z,89.60
2023-04-10T18:48:42.710Z,89.70
2023-04-10T18:51:11.660Z,90.20
2023-04-10T18:53:40.954Z,90.70
2023-04-10T18:56:10.852Z,90.90
2023-04-10T18:58:39.288Z,90.80
2023-04-10T19:01:08.390Z,90.80
2023-04-10T19:03:37.385Z,91.00
2023-04-10T19:06:06.298Z,91.30
2023-04-10T19:08:34.844Z,91.50
2023-04-10T19:11:05.487Z,91.50
2023-04-10T19:13:35.559Z,91.80
2023-04-10T19:16:05.560Z,92.60
2023-04-10T19:18:34.010Z,92.60
2023-04-10T19:21:02.682Z,92.70
2023-04-10T19:23:31.108Z,93.00
2023-04-10T19:26:00.312Z,93.30
2023-04-10T19:28:30.891Z,93.60
2023-04-10T19:31:00.731Z,93.90
2023-04-10T19:33:29.913Z,94.30
2023-04-10T19:35:59.186Z,94.80
2023-04-10T19:38:29.259Z,95.20
2023-04-10T19:40:57.755Z,95.40
2023-04-10T19:43:26.354Z,95.70
2023-04-10T19:45:55.150Z,95.80
2023-04-10T19:48:24.923Z,96.00
2023-04-10T19:50:53.417Z,96.40
2023-04-10T19:53:21.839Z,96.80
2023-04-10T19:55:50.482Z,97.00
2023-04-10T19:58:36.003Z,98.30
2023-04-10T20:01:08.661Z,97.70
2023-04-10T20:03:38.808Z,98.00
2023-04-10T20:06:08.421Z,98.30
2023-04-10T20:08:37.342Z,98.90
2023-04-10T20:11:06.881Z,99.60
2023-04-10T20:13:35.564Z,99.90
2023-04-10T20:16:04.027Z,99.90
2023-04-10T20:18:32.862Z,99.90
2023-04-10T20:21:02.685Z,99.90
2023-04-10T20:23:31.161Z,99.90
2023-04-10T20:25:59.558Z,99.90
2023-04-10T20:28:27.980Z,99.90
2023-04-10T20:30:56.408Z,99.90
2023-04-10T20:33:24.945Z,99.90
2023-04-10T20:35:54.163Z,99.90
2023-04-10T20:38:23.948Z,99.90
2023-04-10T20:40:52.499Z,99.90
2023-04-10T20:43:21.342Z,99.90
2023-04-10T20:45:49.747Z,99.90
2023-04-10T20:48:18.197Z,99.90
2023-04-10T20:50:49.075Z,99.90
2023-04-10T20:53:17.641Z,99.90
2023-04-10T20:55:47.429Z,99.90
2023-04-10T20:58:15.843Z,99.90
2023-04-10T21:00:44.333Z,99.90
2023-04-10T21:03:12.909Z,99.90
2023-04-10T21:05:42.103Z,99.90
2023-04-10T21:08:10.858Z,99.90
2023-04-10T21:10:44.048Z,99.90
2023-04-10T21:13:15.085Z,99.90
2023-04-10T21:15:43.746Z,99.90
2023-04-10T21:18:12.445Z,99.90
2023-04-10T21:20:40.978Z,99.90
2023-04-10T21:23:09.395Z,99.90
2023-04-10T21:25:37.922Z,99.90
2023-04-10T21:28:06.416Z,99.90
2023-04-10T21:30:36.181Z,99.90
2023-04-10T21:33:04.789Z,99.90
2023-04-10T21:35:33.255Z,99.90
2023-04-10T21:38:02.424Z,99.90
2023-04-10T21:40:34.218Z,99.90
2023-04-10T21:43:02.965Z,99.90
2023-04-10T21:45:31.488Z,99.90
2023-04-10T21:48:01.355Z,99.90
2023-04-10T21:50:29.980Z,99.90
2023-04-10T21:53:00.126Z,99.90
2023-04-10T21:55:28.613Z,99.90
2023-04-10T21:57:57.400Z,99.90
2023-04-10T22:00:26.309Z,99.90
2023-04-10T22:02:54.984Z,99.90
2023-04-10T22:05:25.349Z,99.90
2023-04-10T22:07:53.834Z,99.90
2023-04-10T22:10:22.268Z,99.90
2023-04-10T22:12:50.676Z,99.90
2023-04-10T22:15:19.696Z,99.90
2023-04-10T22:17:48.191Z,99.90
2023-04-10T22:20:17.124Z,99.90
2023-04-10T22:22:46.900Z,99.90
2023-04-10T22:25:15.651Z,99.90
2023-04-10T22:27:44.051Z,99.90
2023-04-10T22:30:13.454Z,99.90
2023-04-10T22:32:42.138Z,99.90
2023-04-10T22:35:10.666Z,99.90
2023-04-10T22:37:39.099Z,99.90
2023-04-10T22:40:10.354Z,99.90
2023-04-10T22:42:38.859Z,99.90
2023-04-10T22:45:08.579Z,99.90
2023-04-10T22:47:36.918Z,99.90
2023-04-10T22:50:07.236Z,99.90
2023-04-10T22:52:36.057Z,99.90
2023-04-10T22:55:06.784Z,99.90
2023-04-10T22:57:36.542Z,99.90
2023-04-10T23:00:05.612Z,99.90
2023-04-10T23:02:34.075Z,99.90
2023-04-10T23:05:02.885Z,99.90
2023-04-10T23:07:31.420Z,99.90
2023-04-10T23:10:00.704Z,99.90
2023-04-10T23:12:29.257Z,99.90
2023-04-10T23:14:59.209Z,99.90
2023-04-10T23:17:27.627Z,99.90
2023-04-10T23:19:56.100Z,99.90
2023-04-10T23:22:24.651Z,99.90
2023-04-10T23:24:54.795Z,99.90
2023-04-10T23:27:23.555Z,99.90
2023-04-10T23:29:51.981Z,99.90
2023-04-10T23:32:21.714Z,99.90
2023-04-10T23:34:50.135Z,99.90
2023-04-10T23:37:18.590Z,99.90
2023-04-10T23:39:47.002Z,99.90
2023-04-10T23:42:15.504Z,99.90
2023-04-10T23:44:43.913Z,99.90
2023-04-10T23:47:12.627Z,99.90
2023-04-10T23:49:42.512Z,99.90
2023-04-10T23:52:11.530Z,99.90
2023-04-10T23:54:40.476Z,99.90
2023-04-10T23:57:08.950Z,99.90
2023-04-10T23:59:37.301Z,99.90
